Time;durP1;ratioP1;P1;durP2;ratioP2;P2;SDS_P1;SDS_P2;PMS_P1;PMS_P2;Temp;Humidity;BMP_temperature;BMP_pressure;BME280_temperature;BME280_humidity;BME280_pressure;Samples;Min_cycle;Max_cycle;Signal;HPM_P1;HPM_P2
2022/04/13 00:00:28;;;;;;;2.67;2.30;;;12.60;54.90;12.80;96215.00;;;;4953378;28;20196;-84
2022/04/13 00:02:58;;;;;;;2.33;2.13;;;12.70;55.00;12.80;96213.00;;;;4953460;29;20220;-84
2022/04/13 00:05:27;;;;;;;2.00;1.80;;;12.50;55.00;12.70;96214.00;;;;4953435;29;20211;-84
2022/04/13 00:07:56;;;;;;;3.30;2.20;;;12.50;55.00;12.70;96207.00;;;;4952957;28;20204;-82
2022/04/13 00:10:23;;;;;;;2.20;2.00;;;12.90;55.90;12.70;96210.00;;;;4951824;28;20307;-83
2022/04/13 00:12:50;;;;;;;2.70;2.50;;;12.40;55.30;12.60;96198.00;;;;4952873;28;20291;-84
2022/04/13 00:15:17;;;;;;;3.07;2.37;;;12.40;55.50;12.60;96205.00;;;;4953184;28;20278;-84
2022/04/13 00:17:45;;;;;;;3.97;1.87;;;12.40;55.70;12.50;96198.00;;;;4953620;28;20324;-85
2022/04/13 00:20:15;;;;;;;2.50;2.30;;;12.40;55.90;12.50;96205.00;;;;4953422;28;20208;-84
2022/04/13 00:22:44;;;;;;;2.33;2.17;;;12.30;56.00;12.50;96204.00;;;;4953097;29;20232;-84
2022/04/13 00:25:11;;;;;;;2.53;2.20;;;12.30;56.10;12.40;96194.00;;;;4952482;28;20705;-82
2022/04/13 00:27:38;;;;;;;3.43;2.00;;;12.30;56.10;12.40;96207.00;;;;4952693;29;20196;-84
2022/04/13 00:30:07;;;;;;;2.57;1.90;;;12.30;56.20;12.40;96202.00;;;;4952636;28;20295;-83
2022/04/13 00:32:34;;;;;;;2.10;1.90;;;12.30;56.40;12.40;96208.00;;;;4952566;28;20192;-84
2022/04/13 00:35:04;;;;;;;3.10;2.47;;;12.20;56.40;12.40;96213.00;;;;4952139;28;20258;-82
2022/04/13 00:37:34;;;;;;;2.60;2.17;;;12.30;56.60;12.30;96209.00;;;;4954980;28;20247;-82
2022/04/13 00:40:02;;;;;;;2.30;2.10;;;12.20;56.60;12.30;96206.00;;;;4953569;28;20204;-82
2022/04/13 00:42:29;;;;;;;2.70;2.50;;;12.20;56.70;12.30;96216.00;;;;4952576;29;20192;-82
2022/04/13 00:44:57;;;;;;;2.87;2.57;;;12.10;56.70;12.20;96212.00;;;;4952385;28;20224;-82
2022/04/13 00:47:25;;;;;;;2.60;2.40;;;12.10;56.80;12.20;96208.00;;;;4953885;28;20223;-83
2022/04/13 00:49:54;;;;;;;2.70;2.50;;;12.10;56.90;12.20;96209.00;;;;4953872;29;20236;-83
2022/04/13 00:52:24;;;;;;;3.60;2.67;;;12.00;57.00;12.20;96213.00;;;;4953606;28;20645;-83
2022/04/13 00:54:55;;;;;;;4.10;2.50;;;12.00;57.10;12.20;96204.00;;;;4952596;29;20215;-83
2022/04/13 00:57:25;;;;;;;2.80;2.40;;;12.00;57.20;12.10;96202.00;;;;4953457;28;20299;-82
2022/04/13 00:59:55;;;;;;;2.97;2.63;;;12.00;57.20;12.10;96204.00;;;;4953856;29;20188;-82
2022/04/13 01:02:25;;;;;;;3.20;2.80;;;11.90;57.30;12.10;96207.00;;;;4949733;28;20234;-82
2022/04/13 01:04:54;;;;;;;3.27;2.43;;;11.90;57.30;12.10;96207.00;;;;4942551;28;20230;-82
2022/04/13 01:07:23;;;;;;;3.13;2.50;;;12.10;57.50;12.00;96205.00;;;;4951225;29;20282;-82
2022/04/13 01:09:51;;;;;;;2.17;1.97;;;11.90;57.50;12.00;96211.00;;;;4953406;28;20572;-82
2022/04/13 01:12:19;;;;;;;3.23;2.63;;;11.80;57.60;12.00;96211.00;;;;4972334;28;20207;-82
2022/04/13 01:14:47;;;;;;;3.77;2.80;;;11.90;57.70;12.00;96206.00;;;;4951491;28;20663;-83
2022/04/13 01:17:15;;;;;;;2.60;2.40;;;11.80;57.80;12.00;96204.00;;;;4952324;28;20612;-83
2022/04/13 01:19:42;;;;;;;3.13;2.63;;;11.80;57.80;11.90;96205.00;;;;4952835;28;20197;-82
2022/04/13 01:22:20;;;;;;;2.40;2.20;;;11.70;57.80;11.90;96214.00;;;;4952671;28;20683;-83
2022/04/13 01:24:50;;;;;;;3.40;2.90;;;11.70;58.00;11.90;96203.00;;;;4952003;28;20218;-82
2022/04/13 01:27:18;;;;;;;2.77;2.43;;;11.70;58.60;11.90;96207.00;;;;4952861;28;20198;-83
2022/04/13 01:29:48;;;;;;;3.10;2.80;;;11.70;58.10;11.90;96205.00;;;;4953038;28;20208;-83
2022/04/13 01:32:16;;;;;;;3.53;2.87;;;11.70;58.10;11.90;96212.00;;;;4964107;28;20735;-83
2022/04/13 01:34:50;;;;;;;3.13;2.70;;;11.70;58.10;11.90;96214.00;;;;4953213;28;20212;-83
2022/04/13 01:37:20;;;;;;;3.23;2.93;;;11.70;58.30;11.90;96212.00;;;;4952951;28;21070;-83
2022/04/13 01:39:47;;;;;;;3.00;2.80;;;12.20;58.50;11.90;96213.00;;;;4953560;28;20263;-82
2022/04/13 01:42:17;;;;;;;3.40;2.87;;;12.10;58.50;11.90;96220.00;;;;4953928;28;20703;-82
2022/04/13 01:44:45;;;;;;;2.70;2.47;;;11.70;58.40;11.90;96213.00;;;;4952954;28;20792;-82
2022/04/13 01:47:12;;;;;;;3.53;2.57;;;11.60;58.30;11.90;96219.00;;;;4953863;28;20200;-82
2022/04/13 01:49:43;;;;;;;3.37;2.87;;;11.60;58.30;11.90;96222.00;;;;4953423;28;20199;-82
2022/04/13 01:52:12;;;;;;;2.70;2.50;;;11.60;58.40;11.90;96221.00;;;;4953499;28;20206;-82
2022/04/13 01:54:42;;;;;;;2.93;2.50;;;11.70;59.00;11.90;96219.00;;;;4952619;28;20200;-82
2022/04/13 01:57:17;;;;;;;4.00;2.77;;;11.60;58.40;11.80;96223.00;;;;4953036;28;20215;-82
2022/04/13 01:59:47;;;;;;;3.17;2.87;;;11.70;58.60;11.80;96222.00;;;;4953623;29;20207;-82
2022/04/13 02:02:16;;;;;;;2.73;2.53;;;11.60;58.50;11.90;96236.00;;;;4954070;28;20222;-82
2022/04/13 02:04:48;;;;;;;3.20;2.90;;;11.60;58.50;11.90;96229.00;;;;4952971;28;20272;-83
2022/04/13 02:07:18;;;;;;;3.83;2.60;;;11.60;58.60;11.80;96222.00;;;;4954071;28;20583;-82
2022/04/13 02:09:53;;;;;;;3.60;2.77;;;11.60;58.60;11.80;96229.00;;;;4951986;29;20239;-82
2022/04/13 02:12:22;;;;;;;3.00;2.70;;;11.70;58.70;11.80;96227.00;;;;4952681;28;20199;-83
2022/04/13 02:14:54;;;;;;;2.93;2.60;;;11.60;58.70;11.80;96229.00;;;;4951809;28;20231;-83
2022/04/13 02:17:27;;;;;;;3.53;2.73;;;11.60;58.70;11.80;96232.00;;;;4951531;29;20217;-83
2022/04/13 02:19:59;;;;;;;2.87;2.63;;;11.60;58.60;11.80;96231.00;;;;4950957;28;20238;-83
2022/04/13 02:22:26;;;;;;;3.10;2.73;;;11.60;58.60;11.80;96230.00;;;;4949285;28;20201;-83
2022/04/13 02:25:05;;;;;;;3.57;2.73;;;11.60;58.60;11.80;96235.00;;;;4934508;29;20279;-83
2022/04/13 02:27:35;;;;;;;7.13;3.60;;;11.60;58.80;11.80;96233.00;;;;4950621;28;20254;-83
2022/04/13 02:30:08;;;;;;;3.57;2.77;;;11.60;58.80;11.70;96223.00;;;;4951587;28;20670;-83
2022/04/13 02:32:44;;;;;;;3.40;2.67;;;11.60;58.90;11.70;96222.00;;;;4951315;28;20212;-83
2022/04/13 02:35:15;;;;;;;4.57;3.07;;;11.60;58.90;11.70;96217.00;;;;4952384;28;20318;-83
2022/04/13 02:37:45;;;;;;;3.70;2.87;;;11.50;58.80;11.70;96215.00;;;;4954213;28;20290;-83
2022/04/13 02:40:16;;;;;;;3.17;2.80;;;11.50;58.80;11.70;96222.00;;;;4954496;28;20603;-83
2022/04/13 02:42:45;;;;;;;3.47;2.83;;;11.50;58.90;11.70;96215.00;;;;4953169;28;20713;-84
2022/04/13 02:45:12;;;;;;;3.43;3.07;;;11.50;58.90;11.70;96200.00;;;;4953821;28;20224;-84
2022/04/13 02:47:39;;;;;;;4.93;3.07;;;11.50;59.00;11.60;96202.00;;;;4953644;28;20231;-83
2022/04/13 02:50:08;;;;;;;4.73;2.60;;;11.40;59.00;11.60;96195.00;;;;4954082;29;20196;-84
2022/04/13 02:52:35;;;;;;;3.67;3.00;;;11.40;59.00;11.60;96203.00;;;;4954061;28;20196;-84
2022/04/13 02:55:03;;;;;;;3.70;3.13;;;11.40;59.10;11.60;96201.00;;;;4952417;29;20244;-83
2022/04/13 02:57:37;;;;;;;2.83;2.63;;;11.40;59.10;11.60;96198.00;;;;4952694;28;20216;-83
2022/04/13 03:00:08;;;;;;;3.80;2.77;;;11.40;59.10;11.50;96203.00;;;;4953121;29;20576;-83
2022/04/13 03:02:35;;;;;;;3.37;2.80;;;11.30;59.20;11.50;96206.00;;;;4952848;28;20275;-84
2022/04/13 03:05:03;;;;;;;4.07;3.20;;;11.30;59.20;11.50;96203.00;;;;4951970;28;20232;-84
2022/04/13 03:07:32;;;;;;;3.03;2.73;;;11.30;59.20;11.50;96200.00;;;;4950416;28;20204;-84
2022/04/13 03:09:59;;;;;;;4.03;3.07;;;11.20;59.10;11.40;96200.00;;;;4953081;29;20196;-83
2022/04/13 03:12:27;;;;;;;3.50;3.20;;;11.20;59.20;11.40;96203.00;;;;5012725;28;20197;-83
2022/04/13 03:14:56;;;;;;;3.50;3.20;;;11.20;59.30;11.40;96200.00;;;;5053992;28;20217;-84
2022/04/13 03:17:23;;;;;;;3.93;3.20;;;11.20;59.30;11.40;96202.00;;;;5028216;28;20877;-83
2022/04/13 03:19:50;;;;;;;4.40;3.10;;;11.20;59.40;11.40;96209.00;;;;4954323;29;20227;-83
2022/04/13 03:22:17;;;;;;;4.20;3.37;;;11.20;59.40;11.30;96205.00;;;;4954035;28;20343;-82
2022/04/13 03:24:45;;;;;;;5.40;3.43;;;11.10;59.40;11.30;96207.00;;;;4939251;29;20283;-83
2022/04/13 03:27:12;;;;;;;5.67;3.13;;;11.10;60.10;11.30;96211.00;;;;4953663;28;20335;-83
2022/04/13 03:29:39;;;;;;;3.37;3.07;;;11.10;59.60;11.30;96212.00;;;;4954104;28;20578;-83
2022/04/13 03:32:12;;;;;;;3.50;3.13;;;11.00;59.70;11.30;96216.00;;;;4953429;28;20299;-83
2022/04/13 03:34:39;;;;;;;3.77;3.17;;;11.10;59.90;11.20;96215.00;;;;4953181;28;20664;-83
2022/04/13 03:37:06;;;;;;;4.53;2.93;;;11.00;60.70;11.20;96216.00;;;;4953930;28;20243;-82
2022/04/13 03:39:33;;;;;;;3.80;3.20;;;11.00;60.70;11.20;96217.00;;;;4954601;28;20246;-83
2022/04/13 03:42:00;;;;;;;3.57;3.27;;;11.00;60.10;11.20;96210.00;;;;4953881;28;20228;-83
2022/04/13 03:44:27;;;;;;;7.57;3.17;;;11.00;60.80;11.20;96218.00;;;;4953092;28;20208;-83
2022/04/13 03:46:54;;;;;;;3.77;3.03;;;11.00;60.00;11.10;96221.00;;;;4953657;28;20306;-83
2022/04/13 03:49:23;;;;;;;3.43;3.03;;;11.00;60.00;11.10;96230.00;;;;4945775;28;20304;-82
2022/04/13 03:51:53;;;;;;;3.30;2.70;;;10.90;60.10;11.10;96232.00;;;;4934083;28;20205;-83
2022/04/13 03:54:20;;;;;;;4.23;3.00;;;10.90;60.10;11.10;96218.00;;;;4934064;29;20204;-83
2022/04/13 03:56:47;;;;;;;3.97;3.03;;;10.90;60.20;11.00;96227.00;;;;4934210;29;20716;-83
2022/04/13 03:59:14;;;;;;;3.87;3.37;;;10.90;60.30;11.00;96219.00;;;;4953445;29;20196;-84
2022/04/13 04:01:41;;;;;;;4.63;3.33;;;10.80;60.50;11.00;96221.00;;;;4952578;28;20265;-84
2022/04/13 04:04:10;;;;;;;3.50;3.00;;;10.80;60.50;11.00;96220.00;;;;4953573;28;20199;-84
2022/04/13 04:06:38;;;;;;;4.53;2.97;;;10.80;61.20;10.90;96221.00;;;;4953363;29;20798;-84
2022/04/13 04:09:09;;;;;;;3.43;3.13;;;10.80;61.30;10.90;96228.00;;;;4954706;28;20205;-84
2022/04/13 04:11:44;;;;;;;5.03;3.10;;;10.70;60.50;10.90;96223.00;;;;4953407;29;20211;-84
2022/04/13 04:14:20;;;;;;;4.70;3.20;;;10.70;60.60;10.80;96228.00;;;;4953738;29;20203;-84
2022/04/13 04:16:49;;;;;;;5.10;3.37;;;10.70;60.60;10.80;96231.00;;;;4953809;28;20212;-83
2022/04/13 04:19:21;;;;;;;4.47;3.27;;;10.70;60.70;10.70;96229.00;;;;4953183;28;20243;-84
2022/04/13 04:21:56;;;;;;;3.30;3.00;;;10.60;60.60;10.70;96234.00;;;;4953191;29;20731;-84
2022/04/13 04:24:27;;;;;;;6.13;3.07;;;10.60;60.70;10.70;96243.00;;;;4953526;28;20215;-84
2022/04/13 04:26:57;;;;;;;4.63;3.20;;;10.60;60.80;10.70;96239.00;;;;4951059;29;20232;-84
2022/04/13 04:29:30;;;;;;;3.20;2.90;;;10.50;60.90;10.70;96242.00;;;;4951125;28;20200;-86
2022/04/13 04:31:59;;;;;;;5.03;3.40;;;10.50;61.10;10.70;96241.00;;;;4951530;28;20295;-85
2022/04/13 04:34:27;;;;;;;4.90;3.67;;;10.50;61.20;10.70;96245.00;;;;4951072;28;20212;-86
2022/04/13 04:36:56;;;;;;;4.30;3.27;;;10.50;61.40;10.70;96233.00;;;;4950301;28;20270;-85
2022/04/13 04:39:23;;;;;;;4.23;3.13;;;10.50;61.50;10.70;96238.00;;;;4951319;29;20578;-84
2022/04/13 04:41:51;;;;;;;4.13;3.20;;;10.40;61.40;10.70;96246.00;;;;4951003;28;20239;-86
2022/04/13 04:44:20;;;;;;;5.00;3.20;;;10.40;61.50;10.80;96241.00;;;;4950412;29;20616;-85
2022/04/13 04:46:47;;;;;;;4.27;3.30;;;10.40;61.60;10.80;96243.00;;;;4950899;28;20255;-86
2022/04/13 04:49:18;;;;;;;3.90;3.50;;;10.40;62.30;10.80;96242.00;;;;4951530;28;20226;-86
2022/04/13 04:51:48;;;;;;;5.60;3.13;;;10.40;61.60;10.80;96245.00;;;;4951380;28;20201;-86
2022/04/13 04:54:18;;;;;;;3.87;3.33;;;10.40;61.60;10.80;96243.00;;;;4953488;28;20203;-83
2022/04/13 04:56:46;;;;;;;4.37;3.30;;;10.40;61.70;10.80;96245.00;;;;4952937;29;20644;-84
2022/04/13 04:59:22;;;;;;;4.20;3.13;;;10.40;61.70;10.80;96254.00;;;;4953438;28;20220;-82
2022/04/13 05:01:51;;;;;;;4.20;3.47;;;10.40;61.90;10.80;96259.00;;;;4957037;28;20264;-82
2022/04/13 05:04:20;;;;;;;4.83;3.27;;;10.40;62.00;10.80;96252.00;;;;4954370;28;20200;-82
2022/04/13 05:06:47;;;;;;;6.57;3.57;;;10.40;62.20;10.80;96261.00;;;;4953533;28;20255;-83
2022/04/13 05:09:17;;;;;;;3.47;3.17;;;10.40;62.30;10.90;96271.00;;;;4952946;28;20208;-83
2022/04/13 05:11:44;;;;;;;4.33;3.20;;;10.50;62.50;10.90;96268.00;;;;4953888;28;20837;-83
2022/04/13 05:14:11;;;;;;;10.50;3.97;;;10.40;62.50;10.90;96271.00;;;;4953281;28;20612;-84
2022/04/13 05:16:38;;;;;;;4.40;3.43;;;10.50;62.80;11.00;96274.00;;;;4952354;28;20952;-86
2022/04/13 05:19:06;;;;;;;3.83;3.20;;;10.60;62.90;11.00;96275.00;;;;4950565;28;20323;-85
2022/04/13 05:21:33;;;;;;;4.97;3.60;;;10.60;63.00;11.10;96281.00;;;;4950204;28;20607;-84
2022/04/13 05:24:00;;;;;;;6.83;3.63;;;10.60;63.00;11.20;96277.00;;;;4951097;28;20682;-85
2022/04/13 05:26:29;;;;;;;4.53;3.57;;;10.60;63.10;11.20;96275.00;;;;4949410;28;20218;-86
2022/04/13 05:28:56;;;;;;;4.30;3.33;;;10.70;63.20;11.30;96276.00;;;;4949172;29;20291;-85
2022/04/13 05:31:24;;;;;;;4.87;3.07;;;10.70;63.30;11.40;96276.00;;;;4949812;28;20208;-86
2022/04/13 05:33:51;;;;;;;4.90;3.63;;;10.80;63.50;11.40;96280.00;;;;4949873;28;20730;-85
2022/04/13 05:36:21;;;;;;;3.77;3.47;;;11.00;63.70;11.50;96278.00;;;;4949848;28;20238;-87
2022/04/13 05:38:57;;;;;;;5.17;3.70;;;10.90;63.70;11.60;96283.00;;;;4951164;28;20228;-87
2022/04/13 05:41:24;;;;;;;4.27;3.63;;;11.00;63.70;11.70;96281.00;;;;4951374;28;20261;-88
2022/04/13 05:43:53;;;;;;;5.33;3.20;;;11.10;63.90;11.80;96287.00;;;;4951697;28;20232;-87
2022/04/13 05:46:21;;;;;;;7.47;3.80;;;11.20;64.00;11.90;96283.00;;;;4950514;28;20275;-88
2022/04/13 05:48:48;;;;;;;3.63;3.33;;;11.30;64.10;12.00;96286.00;;;;4958942;28;20227;-86
2022/04/13 05:51:16;;;;;;;5.53;3.87;;;11.30;64.20;12.00;96289.00;;;;4951000;28;20287;-85
2022/04/13 05:53:44;;;;;;;5.37;3.87;;;11.40;64.40;12.10;96289.00;;;;4949685;28;20242;-87
2022/04/13 05:56:11;;;;;;;4.27;3.87;;;11.50;64.30;12.20;96283.00;;;;4943432;28;20299;-84
2022/04/13 05:58:38;;;;;;;4.50;3.40;;;11.60;64.20;12.20;96293.00;;;;4947139;28;21046;-84
2022/04/13 06:01:06;;;;;;;4.53;3.80;;;11.60;64.20;12.30;96293.00;;;;4938926;28;20804;-84
2022/04/13 06:03:44;;;;;;;5.23;3.60;;;11.70;64.30;12.40;96296.00;;;;4977577;28;20307;-87
2022/04/13 06:06:11;;;;;;;3.87;3.37;;;11.80;65.00;12.50;96303.00;;;;4938536;29;20199;-87
2022/04/13 06:08:38;;;;;;;4.00;3.10;;;11.90;64.20;12.50;96310.00;;;;4940394;29;20543;-87
2022/04/13 06:11:05;;;;;;;4.03;3.00;;;11.90;63.90;12.60;96314.00;;;;4935472;29;20227;-88
2022/04/13 06:13:33;;;;;;;4.77;3.50;;;12.00;64.00;12.60;96309.00;;;;4932756;29;20205;-88
2022/04/13 06:16:00;;;;;;;4.03;2.90;;;12.00;63.90;12.70;96311.00;;;;4933744;29;20207;-86
2022/04/13 06:18:29;;;;;;;3.60;3.17;;;12.10;63.50;12.80;96311.00;;;;4936855;28;20229;-85
2022/04/13 06:20:56;;;;;;;4.03;3.43;;;12.20;63.40;12.90;96316.00;;;;4937202;29;20192;-85
2022/04/13 06:23:23;;;;;;;3.33;3.03;;;12.30;63.50;12.90;96320.00;;;;4935022;28;20209;-85
2022/04/13 06:25:50;;;;;;;3.53;3.23;;;12.30;63.40;13.00;96320.00;;;;4933390;28;20211;-85
2022/04/13 06:28:17;;;;;;;3.23;2.93;;;12.40;63.50;13.10;96330.00;;;;4933097;29;20288;-85
2022/04/13 06:30:44;;;;;;;3.30;3.00;;;12.50;63.50;13.20;96332.00;;;;4933111;29;20201;-85
2022/04/13 06:33:11;;;;;;;3.53;3.23;;;12.60;63.40;13.30;96333.00;;;;4932769;29;20236;-85
2022/04/13 06:35:40;;;;;;;3.43;3.13;;;12.60;63.30;13.40;96326.00;;;;4960638;28;20190;-85
2022/04/13 06:38:07;;;;;;;3.67;3.37;;;12.70;63.30;13.50;96334.00;;;;5005285;28;20213;-85
2022/04/13 06:40:34;;;;;;;4.27;3.33;;;12.80;63.40;13.60;96330.00;;;;4934835;28;20210;-85
2022/04/13 06:43:01;;;;;;;3.73;3.33;;;12.90;63.00;13.70;96329.00;;;;4932842;28;20723;-84
2022/04/13 06:45:28;;;;;;;4.07;3.23;;;13.00;62.80;13.70;96331.00;;;;4935615;28;20297;-84
2022/04/13 06:47:55;;;;;;;4.33;3.03;;;13.10;63.00;13.90;96342.00;;;;4933548;28;20197;-85
2022/04/13 06:50:22;;;;;;;4.53;3.87;;;13.20;62.90;13.90;96337.00;;;;4933432;28;20284;-85
2022/04/13 06:52:51;;;;;;;3.73;3.20;;;13.30;63.60;14.00;96334.00;;;;4932572;28;20225;-85
2022/04/13 06:55:18;;;;;;;4.40;3.23;;;13.30;62.80;14.10;96340.00;;;;4936617;28;20282;-85
2022/04/13 06:57:45;;;;;;;3.43;3.13;;;13.40;62.60;14.20;96339.00;;;;4933462;29;20280;-84
2022/04/13 07:00:14;;;;;;;2.90;2.70;;;13.50;62.30;14.30;96347.00;;;;4934834;29;20217;-84
2022/04/13 07:02:42;;;;;;;3.47;2.90;;;13.60;62.30;14.40;96358.00;;;;4938730;28;20274;-84
2022/04/13 07:05:11;;;;;;;4.03;3.10;;;13.70;62.10;14.50;96357.00;;;;4940009;29;20262;-85
2022/04/13 07:07:38;;;;;;;3.20;3.00;;;13.80;62.10;14.60;96344.00;;;;4938074;29;20197;-85
2022/04/13 07:10:07;;;;;;;3.50;3.20;;;13.90;62.30;14.70;96350.00;;;;4939453;29;20300;-85
2022/04/13 07:12:36;;;;;;;3.63;3.17;;;14.00;62.20;14.90;96351.00;;;;4978806;28;20227;-84
2022/04/13 07:15:03;;;;;;;3.37;3.10;;;14.10;62.10;15.00;96355.00;;;;4937855;29;20208;-84
2022/04/13 07:17:31;;;;;;;3.50;3.20;;;14.20;61.90;15.10;96353.00;;;;4938443;28;20642;-84
2022/04/13 07:19:58;;;;;;;3.33;3.03;;;14.40;62.10;15.30;96349.00;;;;4940250;28;20497;-85
2022/04/13 07:22:25;;;;;;;3.33;3.03;;;14.50;62.20;15.50;96349.00;;;;4943773;28;20280;-84
2022/04/13 07:24:52;;;;;;;4.27;3.03;;;14.60;62.20;15.70;96357.00;;;;4947337;28;20196;-85
2022/04/13 07:27:20;;;;;;;3.47;3.10;;;14.90;62.30;15.90;96361.00;;;;4953801;29;20284;-84
2022/04/13 07:29:47;;;;;;;4.47;3.47;;;15.00;61.90;16.10;96362.00;;;;4949263;28;20268;-85
2022/04/13 07:32:14;;;;;;;3.23;3.00;;;15.20;61.90;16.30;96371.00;;;;4947986;28;20227;-85
2022/04/13 07:34:41;;;;;;;3.97;3.00;;;15.40;61.90;16.50;96360.00;;;;4949071;29;20215;-84
2022/04/13 07:37:08;;;;;;;3.00;2.77;;;15.50;61.70;16.70;96365.00;;;;4951540;29;20268;-85
2022/04/13 07:39:35;;;;;;;4.53;3.13;;;15.70;61.50;16.90;96364.00;;;;4951377;29;20761;-84
2022/04/13 07:42:02;;;;;;;3.67;3.00;;;15.90;61.40;17.10;96365.00;;;;4950003;29;20220;-84
2022/04/13 07:44:31;;;;;;;3.10;2.90;;;16.10;60.90;17.30;96366.00;;;;4950680;28;20665;-84
2022/04/13 07:46:58;;;;;;;3.40;3.10;;;16.30;60.30;17.50;96375.00;;;;4949097;29;20228;-85
2022/04/13 07:49:25;;;;;;;3.77;3.10;;;16.50;60.30;17.60;96371.00;;;;4950990;28;20260;-84
2022/04/13 07:51:52;;;;;;;2.93;2.73;;;16.60;60.10;17.80;96367.00;;;;4946609;29;20232;-84
2022/04/13 07:54:19;;;;;;;3.30;3.00;;;16.80;60.00;18.00;96379.00;;;;4945095;29;20292;-84
2022/04/13 07:56:46;;;;;;;3.30;3.00;;;16.90;59.90;18.20;96373.00;;;;4945179;29;20204;-82
2022/04/13 07:59:13;;;;;;;3.30;3.00;;;17.10;59.80;18.30;96389.00;;;;4942512;28;20229;-88
2022/04/13 08:01:42;;;;;;;4.33;2.90;;;17.30;59.60;18.50;96391.00;;;;4941844;28;20256;-84
2022/04/13 08:04:09;;;;;;;3.17;2.87;;;17.50;59.20;18.70;96384.00;;;;4941350;29;20477;-85
2022/04/13 08:06:36;;;;;;;3.40;3.03;;;17.60;59.20;18.80;96382.00;;;;4940214;29;20203;-85
2022/04/13 08:09:03;;;;;;;3.23;2.97;;;17.80;58.80;19.00;96385.00;;;;4943742;29;20200;-84
2022/04/13 08:11:30;;;;;;;3.17;2.90;;;17.90;58.70;19.20;96383.00;;;;4963780;28;20216;-84
2022/04/13 08:13:57;;;;;;;3.23;2.93;;;18.00;58.60;19.40;96385.00;;;;4996987;28;20269;-83
2022/04/13 08:16:24;;;;;;;7.40;3.83;;;18.20;58.60;19.60;96380.00;;;;4945624;29;20207;-83
2022/04/13 08:18:52;;;;;;;3.40;3.10;;;18.40;58.50;19.80;96383.00;;;;4947992;28;20248;-85
2022/04/13 08:21:19;;;;;;;3.40;3.10;;;18.50;58.40;20.00;96387.00;;;;4944874;28;20311;-84
2022/04/13 08:23:46;;;;;;;2.50;2.30;;;18.70;58.40;20.30;96388.00;;;;4940245;28;20684;-83
2022/04/13 08:26:14;;;;;;;3.13;2.80;;;18.90;57.80;20.50;96394.00;;;;4940948;28;20653;-84
2022/04/13 08:28:41;;;;;;;3.07;2.87;;;19.10;57.90;20.80;96399.00;;;;4940560;29;20201;-84
2022/04/13 08:31:09;;;;;;;3.17;2.87;;;19.30;57.80;21.00;96404.00;;;;4942679;28;20565;-85
2022/04/13 08:33:36;;;;;;;3.77;2.67;;;19.60;57.80;21.30;96410.00;;;;4940259;28;20212;-84
2022/04/13 08:36:05;;;;;;;3.33;2.70;;;19.70;57.10;21.60;96407.00;;;;4938718;28;20197;-83
2022/04/13 08:38:33;;;;;;;2.53;2.33;;;20.00;56.40;21.80;96405.00;;;;4941621;28;20253;-84
2022/04/13 08:41:03;;;;;;;3.23;3.03;;;20.20;56.40;22.00;96412.00;;;;4939567;29;20635;-84
2022/04/13 08:43:41;;;;;;;2.83;2.47;;;20.40;55.30;22.10;96408.00;;;;4939248;29;20246;-83
2022/04/13 08:46:16;;;;;;;2.90;2.60;;;20.60;54.90;22.30;96418.00;;;;4941947;28;20209;-84
2022/04/13 08:48:47;;;;;;;4.10;2.70;;;20.70;54.80;22.50;96418.00;;;;4938204;29;20566;-84
2022/04/13 08:51:18;;;;;;;2.43;2.23;;;20.90;55.10;22.70;96417.00;;;;4938638;28;20716;-84
2022/04/13 08:53:49;;;;;;;3.03;2.73;;;21.10;54.10;23.00;96421.00;;;;4937473;28;20216;-84
2022/04/13 08:56:19;;;;;;;3.13;2.70;;;21.40;55.00;23.40;96425.00;;;;4940496;28;20224;-83
2022/04/13 08:58:59;;;;;;;2.77;2.50;;;21.80;54.50;23.70;96431.00;;;;4937345;28;20221;-83
2022/04/13 09:01:35;;;;;;;2.93;2.63;;;22.20;54.40;24.10;96431.00;;;;4938053;28;20256;-83
2022/04/13 09:04:10;;;;;;;2.67;2.47;;;22.60;54.70;24.40;96434.00;;;;4937129;28;20196;-84
2022/04/13 09:06:43;;;;;;;3.67;2.50;;;22.90;53.80;24.70;96433.00;;;;4937799;28;20206;-84
2022/04/13 09:09:19;;;;;;;3.10;2.80;;;23.30;53.20;25.00;96439.00;;;;4934927;29;20202;-84
2022/04/13 09:11:47;;;;;;;2.87;2.40;;;23.60;52.30;25.10;96431.00;;;;4938484;28;20699;-84
2022/04/13 09:14:16;;;;;;;4.07;2.67;;;23.80;52.20;25.30;96438.00;;;;4934182;29;20221;-84
2022/04/13 09:16:44;;;;;;;2.57;2.37;;;24.10;51.10;25.50;96433.00;;;;4933673;28;20192;-84
2022/04/13 09:19:12;;;;;;;3.00;2.70;;;24.30;50.40;25.60;96447.00;;;;4933032;29;20236;-84
2022/04/13 09:21:42;;;;;;;3.80;2.30;;;24.40;49.40;25.60;96437.00;;;;4935117;28;20452;-84
2022/04/13 09:24:13;;;;;;;2.73;2.50;;;24.60;49.20;25.60;96438.00;;;;4932006;28;20615;-84
2022/04/13 09:26:41;;;;;;;2.63;2.40;;;24.60;47.70;25.60;96439.00;;;;4933118;29;20571;-85
2022/04/13 09:29:08;;;;;;;4.60;2.97;;;24.70;48.20;25.50;96437.00;;;;4934566;28;20205;-85
2022/04/13 09:31:36;;;;;;;2.83;2.60;;;24.70;47.60;25.50;96439.00;;;;4939513;28;20277;-84
2022/04/13 09:34:03;;;;;;;2.47;2.27;;;24.70;48.30;25.60;96442.00;;;;4935420;28;20209;-84
2022/04/13 09:36:31;;;;;;;2.53;2.30;;;24.80;48.80;25.70;96439.00;;;;4936009;29;20224;-85
2022/04/13 09:39:00;;;;;;;2.40;2.20;;;25.00;48.60;25.80;96435.00;;;;4934821;29;20227;-83
2022/04/13 09:41:34;;;;;;;3.00;2.70;;;25.10;48.40;25.90;96438.00;;;;4933396;29;20651;-83
2022/04/13 09:44:02;;;;;;;2.33;2.20;;;25.20;47.30;25.90;96434.00;;;;4934072;29;20228;-83
2022/04/13 09:46:31;;;;;;;2.83;2.40;;;25.30;47.30;25.80;96444.00;;;;4933416;29;20215;-84
2022/04/13 09:49:12;;;;;;;2.20;2.00;;;25.30;47.20;25.80;96445.00;;;;4933719;29;20209;-84
2022/04/13 09:51:41;;;;;;;2.67;2.47;;;25.30;46.00;25.70;96440.00;;;;4938373;28;20224;-84
2022/04/13 09:54:12;;;;;;;2.83;2.47;;;25.20;46.90;25.70;96433.00;;;;4933563;29;20205;-84
2022/04/13 09:56:44;;;;;;;2.77;2.57;;;25.20;46.70;25.80;96437.00;;;;4935528;28;20204;-84
2022/04/13 09:59:12;;;;;;;3.50;2.50;;;25.20;47.40;25.80;96435.00;;;;4929335;29;20456;-85
2022/04/13 10:01:39;;;;;;;2.63;2.43;;;25.20;47.40;25.90;96441.00;;;;4933425;29;20230;-83
2022/04/13 10:04:07;;;;;;;2.73;2.53;;;25.30;47.50;26.00;96436.00;;;;4934116;29;20284;-83
2022/04/13 10:06:34;;;;;;;2.63;2.43;;;25.50;47.20;26.10;96442.00;;;;4934156;28;20670;-84
2022/04/13 10:09:08;;;;;;;3.10;2.37;;;25.60;46.90;26.20;96445.00;;;;4933708;28;20200;-84
2022/04/13 10:11:36;;;;;;;2.93;2.63;;;25.80;47.10;26.30;96442.00;;;;4947535;28;20221;-83
2022/04/13 10:14:06;;;;;;;4.07;2.47;;;26.00;46.80;26.40;96438.00;;;;4935514;29;20260;-83
2022/04/13 10:16:36;;;;;;;2.73;2.53;;;26.10;47.00;26.60;96439.00;;;;4944264;28;20265;-83
2022/04/13 10:19:05;;;;;;;2.93;2.63;;;26.30;46.50;26.60;96439.00;;;;4942956;28;20307;-83
2022/04/13 10:21:40;;;;;;;3.10;2.80;;;26.30;46.00;26.60;96437.00;;;;4947176;29;20271;-83
2022/04/13 10:24:10;;;;;;;2.73;2.53;;;26.40;45.50;26.60;96431.00;;;;4947993;28;20572;-84
2022/04/13 10:26:42;;;;;;;3.93;2.97;;;26.50;46.00;26.70;96436.00;;;;4944451;28;20616;-83
2022/04/13 10:29:17;;;;;;;3.30;2.50;;;26.60;46.20;26.80;96430.00;;;;4935041;29;20231;-84
2022/04/13 10:32:07;;;;;;;3.33;2.50;;;26.60;44.80;26.90;96433.00;;;;4944238;28;20228;-83
2022/04/13 10:34:36;;;;;;;2.23;2.00;;;26.70;45.30;26.90;96425.00;;;;4943749;29;20291;-83
2022/04/13 10:37:04;;;;;;;2.80;2.57;;;26.70;45.70;26.90;96428.00;;;;4941839;29;20200;-83
2022/04/13 10:39:31;;;;;;;2.70;2.30;;;26.80;46.10;27.00;96422.00;;;;4944963;28;20679;-83
2022/04/13 10:42:00;;;;;;;2.43;2.33;;;26.80;45.70;27.10;96425.00;;;;4944691;28;20224;-83
2022/04/13 10:44:34;;;;;;;2.73;2.53;;;26.90;45.40;27.10;96423.00;;;;4944550;28;20201;-83
2022/04/13 10:47:04;;;;;;;3.03;2.30;;;27.00;44.80;27.10;96412.00;;;;4943192;29;20211;-83
2022/04/13 10:49:43;;;;;;;3.27;2.60;;;27.00;44.30;27.20;96417.00;;;;4940853;28;20204;-83
2022/04/13 10:52:21;;;;;;;3.40;2.60;;;26.90;44.10;27.20;96411.00;;;;4938608;29;20319;-84
2022/04/13 10:54:58;;;;;;;2.93;2.20;;;26.80;43.60;27.10;96418.00;;;;4922305;29;20232;-83
2022/04/13 10:57:35;;;;;;;3.57;2.73;;;26.70;43.20;27.10;96420.00;;;;4925242;28;20714;-82
2022/04/13 11:00:06;;;;;;;4.00;2.80;;;26.70;43.70;27.00;96418.00;;;;4926611;29;20247;-82
2022/04/13 11:02:43;;;;;;;2.60;2.23;;;26.50;44.20;27.00;96412.00;;;;4943039;28;20232;-82